sensor_id;sensor_type;location;lat;lon;timestamp;P1;P2;P0
43280;PMS5003;62175;49.416;8.690;2023-04-06T00:02:01;11;10;
43280;PMS5003;62175;49.416;8.690;2023-04-06T00:04:28;16;16;
43280;PMS5003;62175;49.416;8.690;2023-04-06T00:06:56;10;10;
43280;PMS5003;62175;49.416;8.690;2023-04-06T00:09:23;11;10;
43280;PMS5003;62175;49.416;8.690;2023-04-06T00:11:50;16;16;
43280;PMS5003;62175;49.416;8.690;2023-04-06T00:14:18;13;13;
43280;PMS5003;62175;49.416;8.690;2023-04-06T00:16:45;17;15;
43280;PMS5003;62175;49.416;8.690;2023-04-06T00:19:12;14;13;
43280;PMS5003;62175;49.416;8.690;2023-04-06T00:21:41;14;14;
43280;PMS5003;62175;49.416;8.690;2023-04-06T00:24:08;15;14;
43280;PMS5003;62175;49.416;8.690;2023-04-06T00:26:35;11;11;
43280;PMS5003;62175;49.416;8.690;2023-04-06T00:29:03;15;15;
43280;PMS5003;62175;49.416;8.690;2023-04-06T00:31:31;13;12;
43280;PMS5003;62175;49.416;8.690;2023-04-06T00:33:58;15;13;
43280;PMS5003;62175;49.416;8.690;2023-04-06T00:36:25;14;13;
43280;PMS5003;62175;49.416;8.690;2023-04-06T00:38:53;14;13;
43280;PMS5003;62175;49.416;8.690;2023-04-06T00:41:20;14;12;
43280;PMS5003;62175;49.416;8.690;2023-04-06T00:43:49;13;12;
43280;PMS5003;62175;49.416;8.690;2023-04-06T00:46:16;13;12;
43280;PMS5003;62175;49.416;8.690;2023-04-06T00:48:43;13;13;
43280;PMS5003;62175;49.416;8.690;2023-04-06T00:51:11;16;14;
43280;PMS5003;62175;49.416;8.690;2023-04-06T00:53:38;14;13;
43280;PMS5003;62175;49.416;8.690;2023-04-06T00:56:05;15;14;
43280;PMS5003;62175;49.416;8.690;2023-04-06T00:58:33;13;13;
43280;PMS5003;62175;49.416;8.690;2023-04-06T01:01:01;14;14;
43280;PMS5003;62175;49.416;8.690;2023-04-06T01:03:28;12;11;
43280;PMS5003;62175;49.416;8.690;2023-04-06T01:05:55;15;13;
43280;PMS5003;62175;49.416;8.690;2023-04-06T01:08:23;13;13;
43280;PMS5003;62175;49.416;8.690;2023-04-06T01:10:50;16;14;
43280;PMS5003;62175;49.416;8.690;2023-04-06T01:13:18;14;14;
43280;PMS5003;62175;49.416;8.690;2023-04-06T01:15:45;14;12;
43280;PMS5003;62175;49.416;8.690;2023-04-06T01:18:13;12;12;
43280;PMS5003;62175;49.416;8.690;2023-04-06T01:20:40;15;15;
43280;PMS5003;62175;49.416;8.690;2023-04-06T01:23:08;14;13;
43280;PMS5003;62175;49.416;8.690;2023-04-06T01:25:35;14;14;
43280;PMS5003;62175;49.416;8.690;2023-04-06T01:28:03;13;13;
43280;PMS5003;62175;49.416;8.690;2023-04-06T01:30:30;14;14;
43280;PMS5003;62175;49.416;8.690;2023-04-06T01:32:57;14;14;
43280;PMS5003;62175;49.416;8.690;2023-04-06T01:35:25;14;13;
43280;PMS5003;62175;49.416;8.690;2023-04-06T01:37:53;14;14;
43280;PMS5003;62175;49.416;8.690;2023-04-06T01:40:20;14;12;
43280;PMS5003;62175;49.416;8.690;2023-04-06T01:42:47;12;12;
43280;PMS5003;62175;49.416;8.690;2023-04-06T01:45:15;14;14;
43280;PMS5003;62175;49.416;8.690;2023-04-06T01:47:43;14;14;
43280;PMS5003;62175;49.416;8.690;2023-04-06T01:50:10;12;12;
43280;PMS5003;62175;49.416;8.690;2023-04-06T01:52:37;14;14;
43280;PMS5003;62175;49.416;8.690;2023-04-06T01:55:05;16;14;
43280;PMS5003;62175;49.416;8.690;2023-04-06T01:57:33;13;13;
43280;PMS5003;62175;49.416;8.690;2023-04-06T02:00:00;13;13;
43280;PMS5003;62175;49.416;8.690;2023-04-06T02:02:27;17;16;
43280;PMS5003;62175;49.416;8.690;2023-04-06T02:04:55;15;14;
43280;PMS5003;62175;49.416;8.690;2023-04-06T02:07:22;13;13;
43280;PMS5003;62175;49.416;8.690;2023-04-06T02:09:53;15;14;
43280;PMS5003;62175;49.416;8.690;2023-04-06T02:12:21;16;15;
43280;PMS5003;62175;49.416;8.690;2023-04-06T02:14:48;13;13;
43280;PMS5003;62175;49.416;8.690;2023-04-06T02:17:16;14;14;
43280;PMS5003;62175;49.416;8.690;2023-04-06T02:19:43;18;17;
43280;PMS5003;62175;49.416;8.690;2023-04-06T02:22:11;16;15;
43280;PMS5003;62175;49.416;8.690;2023-04-06T02:24:38;15;15;
43280;PMS5003;62175;49.416;8.690;2023-04-06T02:27:05;16;16;
43280;PMS5003;62175;49.416;8.690;2023-04-06T02:29:33;19;15;
43280;PMS5003;62175;49.416;8.690;2023-04-06T02:32:00;16;16;
43280;PMS5003;62175;49.416;8.690;2023-04-06T02:34:27;17;15;
43280;PMS5003;62175;49.416;8.690;2023-04-06T02:36:56;16;15;
43280;PMS5003;62175;49.416;8.690;2023-04-06T02:39:23;19;19;
43280;PMS5003;62175;49.416;8.690;2023-04-06T02:41:50;15;15;
43280;PMS5003;62175;49.416;8.690;2023-04-06T02:44:18;14;13;
43280;PMS5003;62175;49.416;8.690;2023-04-06T02:46:45;14;13;
43280;PMS5003;62175;49.416;8.690;2023-04-06T02:49:13;12;11;
43280;PMS5003;62175;49.416;8.690;2023-04-06T02:51:40;13;13;
43280;PMS5003;62175;49.416;8.690;2023-04-06T02:54:07;13;13;
43280;PMS5003;62175;49.416;8.690;2023-04-06T02:56:36;11;11;
43280;PMS5003;62175;49.416;8.690;2023-04-06T02:59:03;16;15;
43280;PMS5003;62175;49.416;8.690;2023-04-06T03:01:30;15;15;
43280;PMS5003;62175;49.416;8.690;2023-04-06T03:03:57;17;15;
43280;PMS5003;62175;49.416;8.690;2023-04-06T03:06:25;19;17;
43280;PMS5003;62175;49.416;8.690;2023-04-06T03:08:54;18;15;
43280;PMS5003;62175;49.416;8.690;2023-04-06T03:11:21;15;14;
43280;PMS5003;62175;49.416;8.690;2023-04-06T03:13:49;17;16;
43280;PMS5003;62175;49.416;8.690;2023-04-06T03:16:16;16;16;
43280;PMS5003;62175;49.416;8.690;2023-04-06T03:18:43;14;13;
43280;PMS5003;62175;49.416;8.690;2023-04-06T03:21:10;16;15;
43280;PMS5003;62175;49.416;8.690;2023-04-06T03:23:38;19;16;
43280;PMS5003;62175;49.416;8.690;2023-04-06T03:26:05;17;17;
43280;PMS5003;62175;49.416;8.690;2023-04-06T03:28:32;16;16;
43280;PMS5003;62175;49.416;8.690;2023-04-06T03:31:00;17;16;
43280;PMS5003;62175;49.416;8.690;2023-04-06T03:33:27;15;15;
43280;PMS5003;62175;49.416;8.690;2023-04-06T03:35:55;15;14;
43280;PMS5003;62175;49.416;8.690;2023-04-06T03:38:22;13;11;
43280;PMS5003;62175;49.416;8.690;2023-04-06T03:40:50;18;17;
43280;PMS5003;62175;49.416;8.690;2023-04-06T03:43:17;18;16;
43280;PMS5003;62175;49.416;8.690;2023-04-06T03:45:44;15;15;
43280;PMS5003;62175;49.416;8.690;2023-04-06T03:48:12;20;20;
43280;PMS5003;62175;49.416;8.690;2023-04-06T03:50:40;14;14;
43280;PMS5003;62175;49.416;8.690;2023-04-06T03:53:07;16;14;
43280;PMS5003;62175;49.416;8.690;2023-04-06T03:55:34;18;15;
43280;PMS5003;62175;49.416;8.690;2023-04-06T03:58:02;20;19;
43280;PMS5003;62175;49.416;8.690;2023-04-06T04:00:29;22;20;
43280;PMS5003;62175;49.416;8.690;2023-04-06T04:02:57;20;19;
43280;PMS5003;62175;49.416;8.690;2023-04-06T04:05:24;20;19;
43280;PMS5003;62175;49.416;8.690;2023-04-06T04:07:52;18;18;
43280;PMS5003;62175;49.416;8.690;2023-04-06T04:10:19;18;18;
43280;PMS5003;62175;49.416;8.690;2023-04-06T04:12:46;20;18;
43280;PMS5003;62175;49.416;8.690;2023-04-06T04:15:14;20;19;
43280;PMS5003;62175;49.416;8.690;2023-04-06T04:17:41;21;21;
43280;PMS5003;62175;49.416;8.690;2023-04-06T04:20:09;21;18;
43280;PMS5003;62175;49.416;8.690;2023-04-06T04:22:37;24;20;
43280;PMS5003;62175;49.416;8.690;2023-04-06T04:25:05;25;24;
43280;PMS5003;62175;49.416;8.690;2023-04-06T04:27:34;25;21;
43280;PMS5003;62175;49.416;8.690;2023-04-06T04:30:03;24;22;
43280;PMS5003;62175;49.416;8.690;2023-04-06T04:32:32;32;27;
43280;PMS5003;62175;49.416;8.690;2023-04-06T04:34:59;25;23;
43280;PMS5003;62175;49.416;8.690;2023-04-06T04:37:29;22;20;
43280;PMS5003;62175;49.416;8.690;2023-04-06T04:40:00;25;22;
43280;PMS5003;62175;49.416;8.690;2023-04-06T04:42:36;24;22;
43280;PMS5003;62175;49.416;8.690;2023-04-06T04:45:04;23;21;
43280;PMS5003;62175;49.416;8.690;2023-04-06T04:47:32;23;20;
43280;PMS5003;62175;49.416;8.690;2023-04-06T04:50:00;22;19;
43280;PMS5003;62175;49.416;8.690;2023-04-06T04:52:28;21;20;
43280;PMS5003;62175;49.416;8.690;2023-04-06T04:54:55;16;16;
43280;PMS5003;62175;49.416;8.690;2023-04-06T04:57:22;20;18;
43280;PMS5003;62175;49.416;8.690;2023-04-06T04:59:50;17;15;
43280;PMS5003;62175;49.416;8.690;2023-04-06T05:02:17;14;14;
43280;PMS5003;62175;49.416;8.690;2023-04-06T05:04:45;20;19;
43280;PMS5003;62175;49.416;8.690;2023-04-06T05:07:15;15;14;
43280;PMS5003;62175;49.416;8.690;2023-04-06T05:09:43;17;17;
43280;PMS5003;62175;49.416;8.690;2023-04-06T05:12:10;17;15;
43280;PMS5003;62175;49.416;8.690;2023-04-06T05:14:38;17;15;
43280;PMS5003;62175;49.416;8.690;2023-04-06T05:17:07;14;14;
43280;PMS5003;62175;49.416;8.690;2023-04-06T05:19:35;17;16;
43280;PMS5003;62175;49.416;8.690;2023-04-06T05:22:03;15;15;
43280;PMS5003;62175;49.416;8.690;2023-04-06T05:24:32;15;15;
43280;PMS5003;62175;49.416;8.690;2023-04-06T05:27:01;17;15;
43280;PMS5003;62175;49.416;8.690;2023-04-06T05:29:30;20;19;
43280;PMS5003;62175;49.416;8.690;2023-04-06T05:31:57;16;15;
43280;PMS5003;62175;49.416;8.690;2023-04-06T05:34:25;19;17;
43280;PMS5003;62175;49.416;8.690;2023-04-06T05:36:53;18;17;
43280;PMS5003;62175;49.416;8.690;2023-04-06T05:39:20;19;17;
43280;PMS5003;62175;49.416;8.690;2023-04-06T05:41:48;18;16;
43280;PMS5003;62175;49.416;8.690;2023-04-06T05:44:16;18;16;
43280;PMS5003;62175;49.416;8.690;2023-04-06T05:46:43;19;19;
43280;PMS5003;62175;49.416;8.690;2023-04-06T05:49:11;20;19;
43280;PMS5003;62175;49.416;8.690;2023-04-06T05:51:38;21;21;
43280;PMS5003;62175;49.416;8.690;2023-04-06T05:54:06;20;19;
43280;PMS5003;62175;49.416;8.690;2023-04-06T05:56:34;20;17;
43280;PMS5003;62175;49.416;8.690;2023-04-06T05:59:02;24;20;
43280;PMS5003;62175;49.416;8.690;2023-04-06T06:01:28;17;15;
43280;PMS5003;62175;49.416;8.690;2023-04-06T06:03:56;20;20;
43280;PMS5003;62175;49.416;8.690;2023-04-06T06:06:23;18;17;
43280;PMS5003;62175;49.416;8.690;2023-04-06T06:08:50;19;17;
43280;PMS5003;62175;49.416;8.690;2023-04-06T06:11:18;22;20;
43280;PMS5003;62175;49.416;8.690;2023-04-06T06:13:45;20;19;
43280;PMS5003;62175;49.416;8.690;2023-04-06T06:16:13;24;21;
43280;PMS5003;62175;49.416;8.690;2023-04-06T06:18:40;18;17;
43280;PMS5003;62175;49.416;8.690;2023-04-06T06:21:08;22;19;
43280;PMS5003;62175;49.416;8.690;2023-04-06T06:23:35;18;16;
43280;PMS5003;62175;49.416;8.690;2023-04-06T06:26:03;20;19;
43280;PMS5003;62175;49.416;8.690;2023-04-06T06:28:30;23;21;
43280;PMS5003;62175;49.416;8.690;2023-04-06T06:30:58;23;21;
43280;PMS5003;62175;49.416;8.690;2023-04-06T06:33:25;25;22;
43280;PMS5003;62175;49.416;8.690;2023-04-06T06:35:52;21;19;
43280;PMS5003;62175;49.416;8.690;2023-04-06T06:38:20;21;20;
43280;PMS5003;62175;49.416;8.690;2023-04-06T06:40:47;19;19;
43280;PMS5003;62175;49.416;8.690;2023-04-06T06:43:14;19;17;
43280;PMS5003;62175;49.416;8.690;2023-04-06T06:45:42;22;20;
43280;PMS5003;62175;49.416;8.690;2023-04-06T06:48:10;22;20;
43280;PMS5003;62175;49.416;8.690;2023-04-06T06:50:37;22;21;
43280;PMS5003;62175;49.416;8.690;2023-04-06T06:53:04;24;22;
43280;PMS5003;62175;49.416;8.690;2023-04-06T06:55:31;23;22;
43280;PMS5003;62175;49.416;8.690;2023-04-06T06:57:59;20;19;
43280;PMS5003;62175;49.416;8.690;2023-04-06T07:00:26;20;18;
43280;PMS5003;62175;49.416;8.690;2023-04-06T07:02:53;20;19;
43280;PMS5003;62175;49.416;8.690;2023-04-06T07:05:21;22;22;
43280;PMS5003;62175;49.416;8.690;2023-04-06T07:07:48;21;20;
43280;PMS5003;62175;49.416;8.690;2023-04-06T07:10:15;19;19;
43280;PMS5003;62175;49.416;8.690;2023-04-06T07:12:43;19;18;
43280;PMS5003;62175;49.416;8.690;2023-04-06T07:15:11;17;17;
43280;PMS5003;62175;49.416;8.690;2023-04-06T07:17:39;23;20;
43280;PMS5003;62175;49.416;8.690;2023-04-06T07:20:08;26;24;
43280;PMS5003;62175;49.416;8.690;2023-04-06T07:22:37;22;20;
43280;PMS5003;62175;49.416;8.690;2023-04-06T07:25:05;25;24;
43280;PMS5003;62175;49.416;8.690;2023-04-06T07:27:34;24;22;
43280;PMS5003;62175;49.416;8.690;2023-04-06T07:30:01;25;23;
43280;PMS5003;62175;49.416;8.690;2023-04-06T07:32:28;22;21;
43280;PMS5003;62175;49.416;8.690;2023-04-06T07:34:56;23;21;
43280;PMS5003;62175;49.416;8.690;2023-04-06T07:37:23;21;20;
43280;PMS5003;62175;49.416;8.690;2023-04-06T07:39:50;26;22;
43280;PMS5003;62175;49.416;8.690;2023-04-06T07:42:18;23;22;
43280;PMS5003;62175;49.416;8.690;2023-04-06T07:44:48;25;23;
43280;PMS5003;62175;49.416;8.690;2023-04-06T07:47:15;20;20;
43280;PMS5003;62175;49.416;8.690;2023-04-06T07:49:42;21;21;
43280;PMS5003;62175;49.416;8.690;2023-04-06T07:52:10;22;19;
43280;PMS5003;62175;49.416;8.690;2023-04-06T07:54:38;24;22;
43280;PMS5003;62175;49.416;8.690;2023-04-06T07:57:07;25;22;
43280;PMS5003;62175;49.416;8.690;2023-04-06T07:59:35;30;27;
43280;PMS5003;62175;49.416;8.690;2023-04-06T08:02:01;25;24;
43280;PMS5003;62175;49.416;8.690;2023-04-06T08:04:29;24;23;
43280;PMS5003;62175;49.416;8.690;2023-04-06T08:06:56;21;21;
43280;PMS5003;62175;49.416;8.690;2023-04-06T08:09:24;24;23;
43280;PMS5003;62175;49.416;8.690;2023-04-06T08:11:51;30;28;
43280;PMS5003;62175;49.416;8.690;2023-04-06T08:14:18;22;22;
43280;PMS5003;62175;49.416;8.690;2023-04-06T08:16:46;26;25;
43280;PMS5003;62175;49.416;8.690;2023-04-06T08:19:14;28;24;
43280;PMS5003;62175;49.416;8.690;2023-04-06T08:21:41;23;21;
43280;PMS5003;62175;49.416;8.690;2023-04-06T08:24:09;24;23;
43280;PMS5003;62175;49.416;8.690;2023-04-06T08:26:36;20;19;
43280;PMS5003;62175;49.416;8.690;2023-04-06T08:29:04;28;26;
43280;PMS5003;62175;49.416;8.690;2023-04-06T08:31:32;21;19;
43280;PMS5003;62175;49.416;8.690;2023-04-06T08:33:59;23;22;
43280;PMS5003;62175;49.416;8.690;2023-04-06T08:36:26;21;20;
43280;PMS5003;62175;49.416;8.690;2023-04-06T08:38:55;18;18;
43280;PMS5003;62175;49.416;8.690;2023-04-06T08:41:22;29;25;
43280;PMS5003;62175;49.416;8.690;2023-04-06T08:43:56;26;24;
43280;PMS5003;62175;49.416;8.690;2023-04-06T08:46:31;18;18;
43280;PMS5003;62175;49.416;8.690;2023-04-06T08:48:59;24;23;
43280;PMS5003;62175;49.416;8.690;2023-04-06T08:51:28;19;18;
43280;PMS5003;62175;49.416;8.690;2023-04-06T08:53:57;19;18;
43280;PMS5003;62175;49.416;8.690;2023-04-06T08:56:25;21;18;
43280;PMS5003;62175;49.416;8.690;2023-04-06T08:58:54;20;19;
43280;PMS5003;62175;49.416;8.690;2023-04-06T09:01:24;18;16;
43280;PMS5003;62175;49.416;8.690;2023-04-06T09:03:55;21;20;
43280;PMS5003;62175;49.416;8.690;2023-04-06T09:06:24;25;24;
43280;PMS5003;62175;49.416;8.690;2023-04-06T09:08:51;29;26;
43280;PMS5003;62175;49.416;8.690;2023-04-06T09:11:18;21;19;
43280;PMS5003;62175;49.416;8.690;2023-04-06T09:13:47;22;20;
43280;PMS5003;62175;49.416;8.690;2023-04-06T09:16:15;22;21;
43280;PMS5003;62175;49.416;8.690;2023-04-06T09:18:44;19;19;
43280;PMS5003;62175;49.416;8.690;2023-04-06T09:21:11;25;24;
43280;PMS5003;62175;49.416;8.690;2023-04-06T09:23:39;30;25;
43280;PMS5003;62175;49.416;8.690;2023-04-06T09:26:07;21;18;
43280;PMS5003;62175;49.416;8.690;2023-04-06T09:28:44;23;20;
43280;PMS5003;62175;49.416;8.690;2023-04-06T09:31:13;24;23;
43280;PMS5003;62175;49.416;8.690;2023-04-06T09:33:41;22;21;
43280;PMS5003;62175;49.416;8.690;2023-04-06T09:36:12;21;20;
43280;PMS5003;62175;49.416;8.690;2023-04-06T09:38:51;23;23;
43280;PMS5003;62175;49.416;8.690;2023-04-06T09:41:22;23;19;
43280;PMS5003;62175;49.416;8.690;2023-04-06T09:43:51;21;20;
43280;PMS5003;62175;49.416;8.690;2023-04-06T09:46:27;24;21;
43280;PMS5003;62175;49.416;8.690;2023-04-06T09:48:59;20;19;
43280;PMS5003;62175;49.416;8.690;2023-04-06T09:51:27;27;23;
43280;PMS5003;62175;49.416;8.690;2023-04-06T09:53:58;20;18;
43280;PMS5003;62175;49.416;8.690;2023-04-06T09:56:27;18;17;
43280;PMS5003;62175;49.416;8.690;2023-04-06T09:59:07;19;17;
43280;PMS5003;62175;49.416;8.690;2023-04-06T10:01:39;22;22;
43280;PMS5003;62175;49.416;8.690;2023-04-06T10:04:13;21;20;
43280;PMS5003;62175;49.416;8.690;2023-04-06T10:06:53;23;21;
43280;PMS5003;62175;49.416;8.690;2023-04-06T10:09:22;18;18;
43280;PMS5003;62175;49.416;8.690;2023-04-06T10:11:51;18;18;
43280;PMS5003;62175;49.416;8.690;2023-04-06T10:14:19;20;18;
43280;PMS5003;62175;49.416;8.690;2023-04-06T10:16:47;19;19;
43280;PMS5003;62175;49.416;8.690;2023-04-06T10:19:16;19;17;
43280;PMS5003;62175;49.416;8.690;2023-04-06T10:21:48;22;20;
43280;PMS5003;62175;49.416;8.690;2023-04-06T10:24:20;22;21;
43280;PMS5003;62175;49.416;8.690;2023-04-06T10:26:56;16;16;
43280;PMS5003;62175;49.416;8.690;2023-04-06T10:29:24;21;20;
43280;PMS5003;62175;49.416;8.690;2023-04-06T10:31:52;21;21;
43280;PMS5003;62175;49.416;8.690;2023-04-06T10:34:19;17;14;
43280;PMS5003;62175;49.416;8.690;2023-04-06T10:36:47;17;17;
43280;PMS5003;62175;49.416;8.690;2023-04-06T10:39:14;18;15;
43280;PMS5003;62175;49.416;8.690;2023-04-06T10:41:51;19;16;
43280;PMS5003;62175;49.416;8.690;2023-04-06T10:44:20;17;16;
43280;PMS5003;62175;49.416;8.690;2023-04-06T10:46:55;18;16;
43280;PMS5003;62175;49.416;8.690;2023-04-06T10:49:24;21;21;
43280;PMS5003;62175;49.416;8.690;2023-04-06T10:51:53;16;15;
43280;PMS5003;62175;49.416;8.690;2023-04-06T10:54:21;16;14;
43280;PMS5003;62175;49.416;8.690;2023-04-06T10:56:51;16;15;
43280;PMS5003;62175;49.416;8.690;2023-04-06T10:59:18;19;16;
43280;PMS5003;62175;49.416;8.690;2023-04-06T11:01:46;19;16;
43280;PMS5003;62175;49.416;8.690;2023-04-06T11:04:15;17;17;
43280;PMS5003;62175;49.416;8.690;2023-04-06T11:06:46;15;14;
43280;PMS5003;62175;49.416;8.690;2023-04-06T22:02:51;24;24;
43280;PMS5003;62175;49.416;8.690;2023-04-06T22:05:18;38;37;
43280;PMS5003;62175;49.416;8.690;2023-04-06T22:07:45;24;23;
43280;PMS5003;62175;49.416;8.690;2023-04-06T22:10:13;20;17;
43280;PMS5003;62175;49.416;8.690;2023-04-06T22:12:42;37;35;
43280;PMS5003;62175;49.416;8.690;2023-04-06T22:15:10;20;19;
43280;PMS5003;62175;49.416;8.690;2023-04-06T22:17:37;17;16;
43280;PMS5003;62175;49.416;8.690;2023-04-06T22:20:05;24;23;
43280;PMS5003;62175;49.416;8.690;2023-04-06T22:22:32;19;18;
43280;PMS5003;62175;49.416;8.690;2023-04-06T22:25:00;18;17;
43280;PMS5003;62175;49.416;8.690;2023-04-06T22:27:27;20;16;
43280;PMS5003;62175;49.416;8.690;2023-04-06T22:29:57;15;14;
43280;PMS5003;62175;49.416;8.690;2023-04-06T22:32:32;15;14;
43280;PMS5003;62175;49.416;8.690;2023-04-06T22:35:12;18;15;
43280;PMS5003;62175;49.416;8.690;2023-04-06T22:38:01;20;17;
43280;PMS5003;62175;49.416;8.690;2023-04-06T22:42:20;13;11;
43280;PMS5003;62175;49.416;8.690;2023-04-06T22:45:00;14;13;
43280;PMS5003;62175;49.416;8.690;2023-04-06T22:47:34;16;15;
43280;PMS5003;62175;49.416;8.690;2023-04-06T22:50:07;17;16;
43280;PMS5003;62175;49.416;8.690;2023-04-06T22:52:38;15;14;
43280;PMS5003;62175;49.416;8.690;2023-04-06T22:55:18;15;14;
43280;PMS5003;62175;49.416;8.690;2023-04-06T22:58:02;15;14;
43280;PMS5003;62175;49.416;8.690;2023-04-06T23:00:33;17;14;
43280;PMS5003;62175;49.416;8.690;2023-04-06T23:03:10;17;14;
43280;PMS5003;62175;49.416;8.690;2023-04-06T23:05:43;16;14;
43280;PMS5003;62175;49.416;8.690;2023-04-06T23:08:14;20;17;
43280;PMS5003;62175;49.416;8.690;2023-04-06T23:10:51;20;16;
43280;PMS5003;62175;49.416;8.690;2023-04-06T23:13:30;16;15;
43280;PMS5003;62175;49.416;8.690;2023-04-06T23:16:16;17;16;
43280;PMS5003;62175;49.416;8.690;2023-04-06T23:18:58;15;12;
43280;PMS5003;62175;49.416;8.690;2023-04-06T23:21:32;16;15;
43280;PMS5003;62175;49.416;8.690;2023-04-06T23:24:05;16;15;
43280;PMS5003;62175;49.416;8.690;2023-04-06T23:26:41;14;13;
43280;PMS5003;62175;49.416;8.690;2023-04-06T23:29:17;15;13;
43280;PMS5003;62175;49.416;8.690;2023-04-06T23:31:46;16;15;
43280;PMS5003;62175;49.416;8.690;2023-04-06T23:34:15;16;13;
43280;PMS5003;62175;49.416;8.690;2023-04-06T23:36:43;19;17;
43280;PMS5003;62175;49.416;8.690;2023-04-06T23:39:10;20;19;
43280;PMS5003;62175;49.416;8.690;2023-04-06T23:41:37;15;15;
43280;PMS5003;62175;49.416;8.690;2023-04-06T23:44:05;20;19;
43280;PMS5003;62175;49.416;8.690;2023-04-06T23:46:33;19;17;
43280;PMS5003;62175;49.416;8.690;2023-04-06T23:49:00;16;14;
43280;PMS5003;62175;49.416;8.690;2023-04-06T23:51:28;12;12;
43280;PMS5003;62175;49.416;8.690;2023-04-06T23:53:54;17;15;
43280;PMS5003;62175;49.416;8.690;2023-04-06T23:56:22;13;12;
43280;PMS5003;62175;49.416;8.690;2023-04-06T23:58:50;15;12;
